Time;durP1;ratioP1;P1;durP2;ratioP2;P2;SDS_P1;SDS_P2;PMS_P1;PMS_P2;Temp;Humidity;BMP_temperature;BMP_pressure;BME280_temperature;BME280_humidity;BME280_pressure;Samples;Min_cycle;Max_cycle;Signal;HPM_P1;HPM_P2
2023/03/13 00:01:19;;;;;;;3.25;2.67;;;;;;;12.18;74.31;101886.31;5015050;28;20036;-88
2023/03/13 00:03:45;;;;;;;3.22;2.90;;;;;;;12.11;74.42;101876.28;4997853;28;20037;-87
2023/03/13 00:06:12;;;;;;;3.17;2.88;;;;;;;11.95;73.83;101854.28;5010843;28;20033;-87
2023/03/13 00:08:38;;;;;;;4.07;3.17;;;;;;;11.96;74.17;101863.06;5007124;28;20120;-86
2023/03/13 00:11:08;;;;;;;4.57;2.95;;;;;;;11.98;73.97;101864.06;5008050;28;20894;-88
2023/03/13 00:13:34;;;;;;;3.78;2.90;;;;;;;12.04;74.20;101871.41;5012616;28;20140;-88
2023/03/13 00:16:01;;;;;;;4.07;2.88;;;;;;;12.09;74.15;101891.88;5028678;28;21067;-87
2023/03/13 00:18:27;;;;;;;3.08;2.72;;;;;;;11.84;73.90;101847.41;4990375;28;20097;-86
2023/03/13 00:21:03;;;;;;;3.63;3.17;;;;;;;11.95;74.32;101867.38;4993728;28;20444;-88
2023/03/13 00:23:29;;;;;;;3.72;3.05;;;;;;;12.13;74.09;101893.88;5001991;28;20037;-87
2023/03/13 00:25:59;;;;;;;4.40;3.10;;;;;;;12.02;74.20;101881.78;4995137;28;20057;-87
2023/03/13 00:28:27;;;;;;;3.20;2.90;;;;;;;12.14;73.82;101898.31;5027942;28;20022;-87
2023/03/13 00:31:09;;;;;;;3.53;3.00;;;;;;;11.97;74.00;101871.00;5011268;28;20092;-87
2023/03/13 00:33:36;;;;;;;3.78;2.95;;;;;;;12.11;74.05;101894.59;5009552;28;20058;-87
2023/03/13 00:36:05;;;;;;;3.35;2.65;;;;;;;11.91;74.11;101859.22;4999965;28;20021;-86
2023/03/13 00:38:31;;;;;;;4.25;2.97;;;;;;;12.00;73.91;101886.00;5002602;28;20037;-87
2023/03/13 00:41:24;;;;;;;3.58;2.97;;;;;;;12.08;74.10;101887.41;5002049;28;20028;-86
2023/03/13 00:43:49;;;;;;;4.20;3.55;;;;;;;12.00;74.27;101876.47;5006285;28;20037;-87
2023/03/13 00:46:17;;;;;;;3.70;2.90;;;;;;;11.88;74.17;101859.00;5023940;28;20112;-86
2023/03/13 00:48:44;;;;;;;3.25;2.95;;;;;;;11.78;74.32;101847.91;4999940;28;20034;-88
2023/03/13 00:51:10;;;;;;;4.43;3.10;;;;;;;12.06;74.56;101898.59;5021575;28;20083;-88
2023/03/13 00:53:35;;;;;;;3.25;2.85;;;;;;;11.88;74.58;101864.25;5011466;28;20044;-87
2023/03/13 00:56:06;;;;;;;3.40;2.90;;;;;;;12.06;74.31;101889.03;4993649;28;20045;-87
2023/03/13 00:58:37;;;;;;;3.17;2.72;;;;;;;12.05;74.21;101897.72;5002439;28;20041;-86
2023/03/13 01:01:07;;;;;;;4.60;2.97;;;;;;;11.97;74.10;101885.81;5013083;28;20034;-87
2023/03/13 01:03:33;;;;;;;4.50;2.80;;;;;;;11.93;73.88;101876.84;5011210;28;20034;-87
2023/03/13 01:06:00;;;;;;;3.15;2.85;;;;;;;11.87;74.03;101870.25;5004631;28;20038;-87
2023/03/13 01:08:27;;;;;;;3.53;2.60;;;;;;;11.79;74.29;101857.59;5000152;28;20121;-87
2023/03/13 01:11:00;;;;;;;6.47;2.80;;;;;;;12.02;74.03;101895.78;5010934;28;20124;-87
2023/03/13 01:13:26;;;;;;;3.10;2.80;;;;;;;11.66;73.67;101834.00;5039255;28;20005;-88
2023/03/13 01:15:52;;;;;;;3.22;2.50;;;;;;;11.81;74.12;101871.69;5021138;28;20644;-87
2023/03/13 01:18:18;;;;;;;3.45;2.90;;;;;;;11.80;74.62;101863.72;5011459;28;20104;-88
2023/03/13 01:20:44;;;;;;;3.28;2.95;;;;;;;11.74;74.15;101858.06;5001323;28;20492;-88
2023/03/13 01:23:09;;;;;;;3.38;3.00;;;;;;;11.59;74.22;101832.69;5015325;28;20034;-88
2023/03/13 01:25:37;;;;;;;3.78;3.10;;;;;;;11.97;74.17;101907.66;5011226;28;20065;-85
2023/03/13 01:28:03;;;;;;;3.92;3.10;;;;;;;11.73;74.16;101864.13;4997678;28;20394;-87
2023/03/13 01:30:30;;;;;;;3.47;2.80;;;;;;;11.87;74.67;101891.19;5012762;28;20026;-87
2023/03/13 01:32:56;;;;;;;3.17;2.80;;;;;;;11.89;74.00;101887.00;4993078;28;20574;-87
2023/03/13 01:35:21;;;;;;;3.17;2.83;;;;;;;11.50;73.94;101824.25;5010662;28;20117;-87
2023/03/13 01:37:47;;;;;;;3.20;2.70;;;;;;;11.80;74.03;101882.94;4998735;28;20461;-87
2023/03/13 01:40:13;;;;;;;3.55;2.97;;;;;;;11.64;73.93;101853.03;5012747;28;20032;-87
2023/03/13 01:42:56;;;;;;;4.90;3.15;;;;;;;11.91;73.89;101915.09;5026896;28;20037;-87
2023/03/13 01:45:49;;;;;;;3.70;3.00;;;;;;;11.92;73.76;101914.31;5017062;28;20427;-86
2023/03/13 01:48:15;;;;;;;3.55;3.00;;;;;;;11.85;74.25;101912.03;5008500;28;20033;-87
2023/03/13 01:50:40;;;;;;;3.30;2.58;;;;;;;11.79;73.75;101902.09;5011167;28;20449;-87
2023/03/13 01:53:06;;;;;;;3.50;3.00;;;;;;;11.87;74.32;101930.47;5014526;28;20150;-87
2023/03/13 01:55:32;;;;;;;4.22;3.17;;;;;;;11.44;73.87;101849.09;5004581;28;20129;-88
2023/03/13 01:57:58;;;;;;;3.40;2.67;;;;;;;11.79;73.61;101923.00;5012477;28;20034;-87
2023/03/13 02:00:26;;;;;;;3.10;2.65;;;;;;;11.90;74.01;101939.47;5015089;28;20025;-88
2023/03/13 02:02:54;;;;;;;4.05;2.90;;;;;;;11.59;74.14;101895.47;5014343;28;20026;-85
2023/03/13 02:05:23;;;;;;;3.72;2.88;;;;;;;11.81;73.91;101939.72;5016749;28;20030;-86
2023/03/13 02:08:18;;;;;;;4.00;3.00;;;;;;;11.85;73.73;101951.28;5012068;28;20044;-86
2023/03/13 02:10:50;;;;;;;4.25;2.90;;;;;;;11.85;74.07;101956.53;4986073;28;20064;-87
2023/03/13 02:13:16;;;;;;;3.15;2.70;;;;;;;11.75;74.02;101948.88;4991760;28;20077;-87
2023/03/13 02:15:42;;;;;;;3.60;2.83;;;;;;;11.65;74.25;101928.13;4990589;28;20036;-87
2023/03/13 02:18:08;;;;;;;3.38;2.65;;;;;;;11.82;74.15;101969.41;4996603;28;20041;-87
2023/03/13 02:20:33;;;;;;;3.33;2.67;;;;;;;11.68;74.26;101944.91;5007845;28;20111;-87
2023/03/13 02:23:00;;;;;;;3.60;2.90;;;;;;;11.79;74.31;101964.88;5007604;28;20419;-87
2023/03/13 02:25:32;;;;;;;4.68;2.85;;;;;;;11.81;73.84;101968.53;5027363;28;20025;-86
2023/03/13 02:28:06;;;;;;;3.55;3.00;;;;;;;11.78;74.05;101976.16;5014058;28;20069;-87
2023/03/13 02:30:32;;;;;;;3.20;2.90;;;;;;;11.55;73.95;101948.41;5011460;28;20087;-88
2023/03/13 02:32:59;;;;;;;2.90;2.60;;;;;;;11.63;74.01;101959.41;5005794;28;20479;-87
2023/03/13 02:35:25;;;;;;;3.35;3.00;;;;;;;11.57;73.91;101961.59;5026307;28;20065;-86
2023/03/13 02:37:57;;;;;;;4.53;3.00;;;;;;;11.77;73.75;101999.63;5012243;28;20064;-86
2023/03/13 02:40:28;;;;;;;3.17;2.75;;;;;;;11.59;73.78;101971.34;5013476;28;20028;-86
2023/03/13 02:42:55;;;;;;;3.33;2.60;;;;;;;11.33;73.65;101940.78;5015542;28;20026;-86
2023/03/13 02:45:21;;;;;;;3.08;2.50;;;;;;;11.74;73.99;102007.25;4995836;28;20081;-88
2023/03/13 02:47:48;;;;;;;3.67;2.78;;;;;;;11.71;74.32;102009.66;4995262;28;20443;-87
2023/03/13 02:50:14;;;;;;;3.63;2.90;;;;;;;11.42;74.10;101964.06;5024825;28;20089;-87
2023/03/13 02:52:44;;;;;;;2.72;2.47;;;;;;;11.72;73.98;102020.22;5013587;28;20112;-87
2023/03/13 02:55:16;;;;;;;3.10;2.80;;;;;;;11.46;73.92;101980.88;5010611;28;20037;-88
2023/03/13 02:57:42;;;;;;;3.00;2.70;;;;;;;11.55;74.21;102003.34;5010038;28;20533;-87
2023/03/13 03:00:11;;;;;;;3.75;2.55;;;;;;;11.60;74.14;102014.16;5008600;28;20034;-88
2023/03/13 03:02:37;;;;;;;2.60;2.40;;;;;;;11.66;74.34;102034.56;4989815;28;20037;-86
2023/03/13 03:05:04;;;;;;;2.85;2.63;;;;;;;11.46;74.28;102000.09;5013506;28;20507;-86
2023/03/13 03:07:30;;;;;;;;;;;;;;;11.71;73.89;102038.44;5014448;28;20033;-88
2023/03/13 03:09:56;;;;;;;3.10;2.80;;;;;;;11.52;74.22;102010.09;5012431;28;19918;-88
2023/03/13 03:12:21;;;;;;;3.10;2.50;;;;;;;11.53;74.15;102017.13;5009247;28;20091;-88
2023/03/13 03:14:47;;;;;;;3.30;2.72;;;;;;;11.47;73.85;102006.22;5028094;28;20037;-86
2023/03/13 03:17:15;;;;;;;4.47;2.83;;;;;;;11.62;73.96;102041.31;4997107;28;20033;-87
2023/03/13 03:19:40;;;;;;;3.42;2.88;;;;;;;11.55;73.61;102020.75;5011976;28;20057;-87
2023/03/13 03:22:06;;;;;;;3.75;3.00;;;;;;;11.52;73.59;102021.44;5014639;28;20038;-86
2023/03/13 03:24:31;;;;;;;3.78;2.85;;;;;;;11.58;73.77;102037.56;5012320;28;20042;-86
2023/03/13 03:26:57;;;;;;;4.10;2.60;;;;;;;11.28;73.67;101986.66;5006705;28;20060;-87
2023/03/13 03:29:22;;;;;;;3.75;2.55;;;;;;;11.47;73.70;102027.16;5025490;28;20124;-86
2023/03/13 03:31:48;;;;;;;3.70;2.90;;;;;;;11.53;73.58;102049.41;5011522;28;20116;-86
2023/03/13 03:34:13;;;;;;;3.78;2.85;;;;;;;11.49;73.92;102033.41;5004461;28;20058;-88
2023/03/13 03:36:39;;;;;;;4.00;3.17;;;;;;;11.50;73.62;102033.50;4987198;28;20035;-87
2023/03/13 03:39:05;;;;;;;3.17;2.88;;;;;;;11.26;73.69;102003.94;5003246;28;20106;-86
2023/03/13 03:41:30;;;;;;;3.53;2.70;;;;;;;11.39;73.67;102034.47;5001474;28;20034;-86
2023/03/13 03:43:56;;;;;;;3.45;3.08;;;;;;;11.36;73.61;102024.69;4992065;28;20034;-87
2023/03/13 03:46:22;;;;;;;3.45;2.63;;;;;;;11.37;73.77;102036.06;5001130;28;20026;-88
2023/03/13 03:48:47;;;;;;;3.50;2.58;;;;;;;11.44;74.04;102047.88;4997293;28;20032;-87
2023/03/13 03:51:14;;;;;;;3.80;2.75;;;;;;;11.52;73.94;102067.63;5011495;28;20515;-87
2023/03/13 03:53:39;;;;;;;3.72;3.03;;;;;;;11.51;74.16;102068.41;4996203;28;20088;-87
2023/03/13 03:56:05;;;;;;;3.13;2.78;;;;;;;11.38;73.88;102049.22;4998769;28;20026;-87
2023/03/13 03:58:31;;;;;;;3.00;2.60;;;;;;;11.37;73.86;102036.06;4994042;28;20034;-87
2023/03/13 04:00:57;;;;;;;2.80;2.50;;;;;;;11.49;73.76;102060.44;4998980;28;20037;-86
2023/03/13 04:03:23;;;;;;;3.97;3.05;;;;;;;11.50;73.32;102071.84;5006959;28;20040;-87
2023/03/13 04:05:48;;;;;;;4.10;2.90;;;;;;;11.20;73.70;102014.84;5008305;28;20033;-87
2023/03/13 04:08:14;;;;;;;4.22;2.75;;;;;;;11.29;73.37;102032.00;5003609;28;20088;-85
2023/03/13 04:10:40;;;;;;;2.55;2.25;;;;;;;11.32;73.66;102042.66;5011174;28;20026;-86
2023/03/13 04:13:05;;;;;;;3.80;2.70;;;;;;;10.95;73.74;101977.28;5009974;28;20064;-86
2023/03/13 04:15:31;;;;;;;3.30;2.70;;;;;;;11.28;74.16;102043.25;5008407;28;20030;-88
2023/03/13 04:17:57;;;;;;;3.25;2.78;;;;;;;11.16;73.85;102012.81;5007704;28;20045;-84
2023/03/13 04:20:23;;;;;;;3.30;2.50;;;;;;;11.43;73.81;102066.97;5007426;28;20033;-86
2023/03/13 04:22:48;;;;;;;5.70;2.80;;;;;;;11.20;73.95;102027.03;5008865;28;20034;-87
2023/03/13 04:25:14;;;;;;;3.47;3.00;;;;;;;10.98;73.79;101998.41;4998608;28;20030;-86
2023/03/13 04:27:39;;;;;;;3.78;2.65;;;;;;;10.94;73.69;101993.75;4992238;28;20026;-86
2023/03/13 04:30:06;;;;;;;3.35;2.67;;;;;;;11.30;74.03;102060.88;4991346;28;20488;-88
2023/03/13 04:32:31;;;;;;;;;;;;;;;11.42;73.80;102079.13;4982636;28;20451;-86
2023/03/13 04:34:57;;;;;;;3.83;2.80;;;;;;;11.37;73.38;102083.16;5008153;28;19917;-86
2023/03/13 04:37:23;;;;;;;3.05;2.50;;;;;;;11.09;73.61;102041.00;4991084;28;20037;-86
2023/03/13 04:39:48;;;;;;;2.72;2.42;;;;;;;11.16;73.81;102062.50;4997465;28;20042;-86
2023/03/13 04:42:14;;;;;;;3.05;2.72;;;;;;;11.37;73.71;102098.84;5002810;28;20034;-85
2023/03/13 04:44:40;;;;;;;3.95;2.78;;;;;;;11.14;73.80;102065.78;4999447;28;20503;-88
2023/03/13 04:47:05;;;;;;;3.40;2.90;;;;;;;11.03;74.09;102045.78;5005138;28;20037;-85
2023/03/13 04:49:31;;;;;;;3.30;3.00;;;;;;;11.18;73.67;102080.91;5001182;28;20141;-85
2023/03/13 04:51:57;;;;;;;4.53;3.00;;;;;;;11.07;73.81;102067.06;5006375;28;20517;-84
2023/03/13 04:54:22;;;;;;;2.92;2.63;;;;;;;11.04;73.49;102055.47;4999154;28;20026;-87
2023/03/13 04:56:48;;;;;;;5.60;3.00;;;;;;;11.32;73.80;102115.88;5002116;28;20399;-84
2023/03/13 04:59:14;;;;;;;3.63;3.00;;;;;;;11.25;73.89;102111.91;4999091;28;20455;-85
2023/03/13 05:01:41;;;;;;;4.18;2.95;;;;;;;11.33;73.89;102115.09;5003203;28;20487;-86
2023/03/13 05:04:07;;;;;;;3.30;2.65;;;;;;;11.27;73.90;102128.63;5005880;28;20069;-86
2023/03/13 05:06:34;;;;;;;3.10;2.65;;;;;;;11.27;74.02;102131.25;4994366;28;20026;-87
2023/03/13 05:09:00;;;;;;;2.85;2.42;;;;;;;11.27;73.72;102131.25;5005947;28;20038;-86
2023/03/13 05:11:25;;;;;;;4.32;2.72;;;;;;;11.26;73.82;102126.84;5004729;28;20037;-87
2023/03/13 05:13:51;;;;;;;3.25;2.75;;;;;;;10.97;73.91;102077.63;5010181;28;20053;-86
2023/03/13 05:16:17;;;;;;;3.13;2.70;;;;;;;10.99;73.60;102087.41;4995302;28;20029;-87
2023/03/13 05:18:42;;;;;;;3.97;2.90;;;;;;;10.93;73.74;102073.88;5006766;28;20037;-86
2023/03/13 05:21:08;;;;;;;3.40;3.10;;;;;;;11.23;73.50;102134.44;4991447;28;20628;-87
2023/03/13 05:23:37;;;;;;;3.40;2.60;;;;;;;11.10;73.60;102114.31;5002967;28;20042;-89
2023/03/13 05:26:03;;;;;;;3.90;2.60;;;;;;;11.24;73.67;102128.44;4999965;28;20027;-88
2023/03/13 05:28:28;;;;;;;4.40;2.97;;;;;;;10.98;73.43;102100.34;5005045;28;20102;-87
2023/03/13 05:30:54;;;;;;;3.00;2.70;;;;;;;11.17;73.53;102131.38;5026560;28;20072;-86
2023/03/13 05:33:19;;;;;;;3.15;2.58;;;;;;;11.02;73.36;102118.06;5011768;28;20021;-87
2023/03/13 05:35:46;;;;;;;3.55;2.75;;;;;;;11.24;73.34;102161.50;5000445;28;20042;-87
2023/03/13 05:38:12;;;;;;;3.22;2.92;;;;;;;11.16;73.66;102158.31;5003230;28;20128;-86
2023/03/13 05:40:38;;;;;;;4.05;2.80;;;;;;;11.04;74.17;102142.63;5008565;28;20121;-86
2023/03/13 05:43:04;;;;;;;3.63;2.63;;;;;;;11.15;73.75;102166.94;5009478;28;20122;-86
2023/03/13 05:45:29;;;;;;;2.95;2.28;;;;;;;10.69;73.38;102086.06;5008313;28;20084;-88
2023/03/13 05:47:55;;;;;;;4.05;3.08;;;;;;;10.95;73.77;102131.50;5000770;28;20113;-86
2023/03/13 05:50:21;;;;;;;3.10;2.70;;;;;;;11.04;73.50;102149.56;5008000;28;20045;-86
2023/03/13 05:52:46;;;;;;;3.40;2.83;;;;;;;11.01;73.58;102152.88;5010809;28;20095;-87
2023/03/13 05:55:12;;;;;;;3.85;2.80;;;;;;;11.15;73.39;102182.63;5009017;28;20484;-88
2023/03/13 05:57:39;;;;;;;2.95;2.50;;;;;;;11.06;73.58;102169.78;5009706;28;20614;-89
2023/03/13 06:00:06;;;;;;;3.05;2.60;;;;;;;11.16;73.40;102179.25;4994299;28;20040;-89
2023/03/13 06:02:31;;;;;;;3.20;2.72;;;;;;;10.93;73.77;102144.44;5011503;28;20034;-90
2023/03/13 06:04:58;;;;;;;4.45;2.90;;;;;;;10.94;73.40;102148.91;5004952;28;20113;-87
2023/03/13 06:07:24;;;;;;;3.60;3.03;;;;;;;11.04;73.37;102175.72;5007493;28;20030;-86
2023/03/13 06:09:51;;;;;;;3.13;2.80;;;;;;;10.89;73.80;102146.72;5005902;28;20532;-85
2023/03/13 06:12:16;;;;;;;3.40;2.90;;;;;;;10.80;73.97;102145.25;5009983;28;20109;-85
2023/03/13 06:14:42;;;;;;;2.85;2.55;;;;;;;11.11;73.69;102189.38;5005112;28;20030;-88
2023/03/13 06:17:07;;;;;;;3.45;2.80;;;;;;;10.84;74.01;102149.00;5009390;28;20034;-85
2023/03/13 06:19:33;;;;;;;3.40;2.65;;;;;;;11.05;74.04;102183.69;5009644;28;20034;-86
2023/03/13 06:21:59;;;;;;;3.63;3.00;;;;;;;11.02;73.42;102183.44;5008900;28;20476;-86
2023/03/13 06:24:24;;;;;;;2.90;2.42;;;;;;;11.01;73.60;102186.84;4995342;28;20022;-86
2023/03/13 06:26:50;;;;;;;3.38;2.78;;;;;;;10.65;73.79;102120.56;5008375;28;20034;-88
2023/03/13 06:29:16;;;;;;;3.63;2.92;;;;;;;10.85;73.53;102155.13;5009825;28;20030;-87
2023/03/13 06:31:42;;;;;;;3.60;2.88;;;;;;;11.06;73.74;102193.31;5009509;28;20042;-86
2023/03/13 06:34:10;;;;;;;4.00;3.15;;;;;;;10.98;74.03;102181.38;4998005;28;20053;-85
2023/03/13 06:36:35;;;;;;;2.85;2.53;;;;;;;11.03;73.97;102195.72;5011718;28;20026;-85
2023/03/13 06:39:02;;;;;;;3.78;3.05;;;;;;;10.94;73.71;102187.16;5023718;28;20051;-86
2023/03/13 06:41:27;;;;;;;4.18;3.30;;;;;;;10.67;73.75;102139.88;5011850;28;20079;-88
2023/03/13 06:43:53;;;;;;;3.72;3.17;;;;;;;10.75;73.78;102159.66;5024664;28;20026;-87
2023/03/13 06:46:21;;;;;;;3.10;2.70;;;;;;;10.99;74.30;102199.81;5021152;28;20072;-85
2023/03/13 06:48:48;;;;;;;3.20;2.90;;;;;;;10.98;73.79;102202.28;4998456;28;20026;-86
2023/03/13 06:51:15;;;;;;;3.13;2.78;;;;;;;10.70;74.16;102152.28;5021562;28;20490;-87
2023/03/13 06:53:41;;;;;;;3.40;2.70;;;;;;;10.82;74.28;102178.44;5014856;28;20029;-87
2023/03/13 06:56:08;;;;;;;4.90;3.20;;;;;;;10.70;74.38;102162.72;5004238;28;20076;-86
2023/03/13 06:58:34;;;;;;;4.97;2.70;;;;;;;10.65;74.29;102151.94;5011625;28;20034;-86
2023/03/13 07:01:10;;;;;;;4.88;3.47;;;;;;;10.93;74.60;102206.28;5012859;28;20018;-88
2023/03/13 07:03:36;;;;;;;5.53;3.45;;;;;;;10.76;74.75;102176.25;5014896;28;20033;-87
2023/03/13 07:06:02;;;;;;;7.47;4.47;;;;;;;10.96;74.39;102206.50;5014963;28;20061;-86
2023/03/13 07:08:28;;;;;;;3.95;3.22;;;;;;;10.79;74.55;102180.03;4995344;28;20033;-86
2023/03/13 07:10:58;;;;;;;4.63;3.22;;;;;;;10.89;74.82;102214.69;5011425;28;20395;-86
2023/03/13 07:13:24;;;;;;;6.32;4.10;;;;;;;10.71;74.71;102193.25;5011491;28;20041;-87
2023/03/13 07:15:50;;;;;;;5.53;3.80;;;;;;;10.86;75.03;102219.66;5024256;28;20022;-88
2023/03/13 07:18:16;;;;;;;5.10;3.92;;;;;;;10.77;74.82;102204.19;5012374;28;20037;-87
2023/03/13 07:20:42;;;;;;;4.55;3.38;;;;;;;10.64;74.88;102184.06;5011570;28;20022;-87
2023/03/13 07:23:07;;;;;;;4.63;3.83;;;;;;;10.50;74.70;102156.00;4995171;28;20479;-86
2023/03/13 07:25:33;;;;;;;7.80;4.43;;;;;;;10.50;74.44;102154.28;5012228;28;20079;-87
2023/03/13 07:28:00;;;;;;;6.55;4.40;;;;;;;10.72;74.97;102200.31;5012670;28;20534;-87
2023/03/13 07:30:26;;;;;;;4.95;3.90;;;;;;;10.45;74.63;102158.22;5024151;28;20043;-87
2023/03/13 07:32:52;;;;;;;;;;;;;;;10.85;74.70;102216.13;5004037;28;20468;-86
2023/03/13 07:35:18;;;;;;;6.90;4.28;;;;;;;10.67;74.62;102189.53;5018558;28;19917;-90
2023/03/13 07:37:44;;;;;;;5.50;3.58;;;;;;;10.65;74.90;102190.22;5022966;28;20056;-87
2023/03/13 07:40:10;;;;;;;5.18;3.95;;;;;;;10.76;75.12;102218.97;5003566;28;20407;-88
2023/03/13 07:42:38;;;;;;;;;;;;;;;10.80;75.05;102220.13;5008317;28;20396;-88
2023/03/13 07:45:04;;;;;;;5.13;3.78;;;;;;;10.78;74.97;102219.09;5020605;28;19920;-87
2023/03/13 07:47:30;;;;;;;4.63;3.70;;;;;;;10.52;75.40;102181.44;5011648;28;20022;-86
2023/03/13 07:49:55;;;;;;;4.70;3.83;;;;;;;10.45;75.56;102165.16;5011588;28;20042;-84
2023/03/13 07:52:21;;;;;;;6.17;4.10;;;;;;;10.36;75.22;102158.44;5030007;28;20018;-88
2023/03/13 07:54:47;;;;;;;4.78;3.42;;;;;;;10.42;75.77;102163.22;5020440;28;20945;-86
2023/03/13 07:57:12;;;;;;;4.93;3.78;;;;;;;10.43;75.64;102165.03;5017083;28;20026;-87
2023/03/13 07:59:38;;;;;;;4.60;3.33;;;;;;;10.35;75.61;102150.47;5029874;28;20044;-87
2023/03/13 08:02:04;;;;;;;4.30;3.70;;;;;;;10.49;75.49;102172.44;5018461;28;20025;-87
2023/03/13 08:04:29;;;;;;;4.43;3.30;;;;;;;10.42;75.85;102167.56;5017554;28;20289;-86
2023/03/13 08:06:55;;;;;;;4.50;3.35;;;;;;;10.74;75.26;102219.66;5011582;28;20088;-86
2023/03/13 08:09:21;;;;;;;4.88;3.70;;;;;;;10.45;75.38;102162.53;4994308;28;20022;-86
2023/03/13 08:11:47;;;;;;;4.35;3.60;;;;;;;10.72;75.19;102213.38;5011531;28;20069;-87
2023/03/13 08:14:13;;;;;;;4.30;3.25;;;;;;;10.34;74.99;102156.50;5023582;28;20025;-86
2023/03/13 08:16:39;;;;;;;4.28;3.40;;;;;;;10.41;74.88;102157.88;5011516;28;20026;-86
2023/03/13 08:19:04;;;;;;;3.90;3.40;;;;;;;10.38;74.91;102148.13;5010304;28;20026;-86
2023/03/13 08:21:33;;;;;;;4.55;3.42;;;;;;;10.42;74.80;102165.84;5018454;28;20022;-86
2023/03/13 08:24:02;;;;;;;3.55;3.00;;;;;;;10.66;74.69;102195.53;5011368;28;20041;-87
2023/03/13 08:26:28;;;;;;;4.32;3.20;;;;;;;10.62;74.95;102193.47;5003582;28;20025;-87
2023/03/13 08:28:57;;;;;;;4.68;3.35;;;;;;;10.76;74.57;102218.06;5013433;28;20467;-86
2023/03/13 08:31:29;;;;;;;4.38;3.22;;;;;;;10.65;74.76;102213.72;5003643;28;20018;-87
2023/03/13 08:33:54;;;;;;;4.95;3.50;;;;;;;10.65;75.16;102217.25;5027505;28;20116;-87
2023/03/13 08:36:26;;;;;;;5.50;3.60;;;;;;;10.65;74.61;102203.28;5005435;28;20117;-87
2023/03/13 08:38:53;;;;;;;3.85;3.10;;;;;;;10.65;74.92;102212.00;4994612;28;20030;-86
2023/03/13 08:41:22;;;;;;;4.18;3.13;;;;;;;10.75;74.85;102226.69;5001915;28;20697;-87
2023/03/13 08:43:48;;;;;;;4.15;3.30;;;;;;;10.70;74.67;102228.03;4998014;28;20024;-86
2023/03/13 08:46:14;;;;;;;3.00;2.50;;;;;;;10.76;74.64;102231.13;5011037;28;20025;-86
2023/03/13 08:48:40;;;;;;;3.47;2.78;;;;;;;10.75;74.69;102226.69;5010796;28;20026;-86
2023/03/13 08:51:08;;;;;;;3.30;3.00;;;;;;;10.70;75.04;102222.81;4993784;28;20080;-86
2023/03/13 08:53:35;;;;;;;4.20;3.03;;;;;;;10.57;74.91;102203.56;4993500;28;20554;-87
2023/03/13 08:56:01;;;;;;;4.05;3.28;;;;;;;10.56;74.92;102203.44;5003214;28;20477;-86
2023/03/13 08:58:27;;;;;;;3.88;3.22;;;;;;;10.68;75.23;102234.84;4996877;28;20121;-85
2023/03/13 09:00:53;;;;;;;3.65;2.90;;;;;;;10.45;75.65;102191.28;5009971;28;20030;-86
2023/03/13 09:03:18;;;;;;;3.20;2.90;;;;;;;10.52;75.45;102207.56;5026426;28;20049;-86
2023/03/13 09:05:46;;;;;;;4.70;3.13;;;;;;;10.67;75.53;102239.16;5013703;28;20087;-87
2023/03/13 09:08:13;;;;;;;4.43;3.00;;;;;;;10.69;75.46;102239.25;5027835;28;20155;-87
2023/03/13 09:10:38;;;;;;;3.78;2.95;;;;;;;10.60;75.78;102218.56;5000745;28;20025;-87
2023/03/13 09:13:04;;;;;;;4.25;2.88;;;;;;;10.52;75.30;102204.94;5015892;28;20467;-86
2023/03/13 09:15:29;;;;;;;2.83;2.60;;;;;;;10.68;75.25;102240.97;5023137;28;20423;-86
2023/03/13 09:17:55;;;;;;;3.30;2.88;;;;;;;10.62;75.66;102232.66;5013222;28;20025;-87
2023/03/13 09:20:21;;;;;;;3.78;2.85;;;;;;;10.55;75.32;102212.09;5013764;28;20034;-86
2023/03/13 09:22:46;;;;;;;3.92;2.90;;;;;;;10.23;75.09;102155.63;5014931;28;20066;-86
2023/03/13 09:25:13;;;;;;;3.58;2.90;;;;;;;10.68;75.30;102240.06;5022463;28;20501;-86
2023/03/13 09:27:39;;;;;;;3.60;2.80;;;;;;;10.69;75.18;102239.25;5013169;28;20037;-86
2023/03/13 09:30:05;;;;;;;4.13;2.70;;;;;;;10.61;75.38;102227.34;5016711;28;20388;-86
2023/03/13 09:32:32;;;;;;;;;;;;;;;10.67;75.67;102231.34;4997874;28;20044;-86
2023/03/13 09:34:58;;;;;;;3.57;2.77;;;;;;;10.53;75.41;102209.34;5009551;28;19917;-87
2023/03/13 09:37:24;;;;;;;3.58;2.92;;;;;;;10.72;75.27;102236.91;4996864;28;20693;-87
2023/03/13 09:39:51;;;;;;;3.55;3.00;;;;;;;10.59;75.52;102227.22;4997092;28;20041;-87
2023/03/13 09:42:20;;;;;;;3.72;2.67;;;;;;;10.71;75.63;102238.63;5013145;28;20033;-88
2023/03/13 09:44:59;;;;;;;4.47;2.75;;;;;;;10.83;75.22;102243.84;5014457;28;20084;-87
2023/03/13 09:47:47;;;;;;;4.28;2.70;;;;;;;10.69;75.13;102234.03;5026568;28;20113;-87
2023/03/13 09:50:29;;;;;;;3.35;2.50;;;;;;;10.74;75.12;102237.94;4997147;28;20021;-87
2023/03/13 09:52:58;;;;;;;3.00;2.70;;;;;;;10.50;75.74;102208.22;4996749;28;20064;-86
2023/03/13 09:55:35;;;;;;;3.28;2.60;;;;;;;10.67;75.49;102239.16;4996372;28;20041;-86
2023/03/13 09:58:16;;;;;;;3.80;2.60;;;;;;;10.64;75.46;102241.53;4996396;28;20022;-85
2023/03/13 10:00:47;;;;;;;3.28;2.63;;;;;;;10.56;75.54;102216.50;5012743;28;20105;-86
2023/03/13 10:03:24;;;;;;;3.95;2.70;;;;;;;10.65;75.06;102221.56;5009421;28;20031;-85
2023/03/13 10:05:56;;;;;;;2.58;2.35;;;;;;;10.55;75.10;102215.59;4996807;28;20030;-86
2023/03/13 10:08:26;;;;;;;3.03;2.45;;;;;;;10.65;75.50;102225.06;5015015;28;20029;-86
2023/03/13 10:11:01;;;;;;;3.55;2.67;;;;;;;10.52;75.43;102188.34;5016207;28;20091;-86
2023/03/13 10:13:49;;;;;;;2.90;2.60;;;;;;;10.78;74.89;102222.59;5003837;28;20026;-87
2023/03/13 10:16:22;;;;;;;3.03;2.33;;;;;;;10.47;75.05;102167.09;5015660;28;20025;-87
2023/03/13 10:18:52;;;;;;;3.53;2.63;;;;;;;10.74;75.12;102219.66;5021593;28;20029;-86
2023/03/13 10:21:21;;;;;;;3.05;2.30;;;;;;;10.78;75.03;102221.69;5015448;28;20079;-87
2023/03/13 10:24:04;;;;;;;2.83;2.45;;;;;;;10.90;74.45;102224.31;5020157;28;20029;-87
2023/03/13 10:26:35;;;;;;;2.20;2.00;;;;;;;10.72;74.37;102202.94;5013514;28;20034;-87
2023/03/13 10:29:21;;;;;;;3.40;2.55;;;;;;;10.81;74.47;102216.69;5013365;28;20084;-87
2023/03/13 10:32:07;;;;;;;2.65;2.20;;;;;;;10.71;74.95;102208.94;5013596;28;20101;-86
2023/03/13 10:35:11;;;;;;;2.88;2.30;;;;;;;10.84;74.46;102218.63;5013282;28;20099;-88
2023/03/13 10:37:42;;;;;;;3.10;2.80;;;;;;;10.82;74.36;102209.78;4991116;28;20088;-88
2023/03/13 10:40:18;;;;;;;4.07;2.45;;;;;;;10.76;74.73;102207.59;4975547;28;20531;-87
2023/03/13 10:42:44;;;;;;;3.25;2.70;;;;;;;10.79;74.87;102202.59;5004132;28;20044;-87
2023/03/13 10:45:16;;;;;;;3.47;2.72;;;;;;;10.58;74.71;102166.22;5012030;28;20040;-87
2023/03/13 10:47:41;;;;;;;4.18;2.53;;;;;;;10.80;74.39;102202.72;5012016;28;20029;-86
2023/03/13 10:50:17;;;;;;;2.85;2.55;;;;;;;10.73;74.66;102197.84;5026106;28;20412;-86
2023/03/13 10:52:45;;;;;;;2.65;2.45;;;;;;;10.86;74.25;102198.75;5006176;28;20037;-86
2023/03/13 10:55:13;;;;;;;3.13;2.38;;;;;;;10.86;74.42;102191.84;4995744;28;20018;-87
2023/03/13 10:57:43;;;;;;;3.83;2.42;;;;;;;10.45;74.07;102111.22;5005093;28;20112;-86
2023/03/13 11:00:33;;;;;;;3.03;2.60;;;;;;;10.94;74.02;102193.34;5015008;28;20033;-88
2023/03/13 11:03:01;;;;;;;3.05;2.40;;;;;;;10.80;74.64;102186.16;5013916;28;20033;-87
2023/03/13 11:05:37;;;;;;;4.45;2.33;;;;;;;10.96;74.36;102190.81;5015049;28;20029;-88
2023/03/13 11:08:24;;;;;;;3.40;2.65;;;;;;;10.86;74.76;102177.84;4998894;28;20077;-88
2023/03/13 11:11:03;;;;;;;2.63;2.42;;;;;;;10.87;74.36;102182.28;4998331;28;20029;-88
2023/03/13 11:13:41;;;;;;;2.95;2.55;;;;;;;10.82;74.33;102173.22;5002833;28;20435;-86
2023/03/13 11:16:07;;;;;;;3.17;2.40;;;;;;;10.88;74.68;102171.03;5006566;28;20035;-85
2023/03/13 11:18:55;;;;;;;2.75;2.42;;;;;;;10.83;74.77;102161.94;5007869;28;20025;-87
2023/03/13 11:21:33;;;;;;;2.95;2.50;;;;;;;10.74;74.43;102139.56;5012562;28;20466;-89
2023/03/13 11:24:09;;;;;;;2.55;2.28;;;;;;;11.03;73.77;102158.19;5023843;28;20025;-88
2023/03/13 11:26:39;;;;;;;2.85;2.53;;;;;;;10.97;73.85;102151.72;5010802;28;20474;-88
2023/03/13 11:29:28;;;;;;;3.38;2.50;;;;;;;10.75;74.45;102132.59;4994291;28;20029;-87
2023/03/13 11:31:59;;;;;;;2.63;2.42;;;;;;;10.95;74.52;102149.81;5013238;28;20105;-86